createdAt,value
2019-02-02T00:00:39.794Z,0.64
2019-02-02T00:01:39.746Z,0.63
2019-02-02T00:02:39.750Z,0.70
2019-02-02T00:03:39.744Z,0.70
2019-02-02T00:04:39.722Z,0.64
2019-02-02T00:05:39.707Z,0.64
2019-02-02T00:06:39.729Z,0.60
2019-02-02T00:07:39.691Z,0.62
2019-02-02T00:08:39.658Z,0.67
2019-02-02T00:09:39.659Z,0.64
2019-02-02T00:10:39.659Z,0.63
2019-02-02T00:11:39.639Z,0.63
2019-02-02T00:12:39.648Z,0.69
2019-02-02T00:13:39.624Z,0.69
2019-02-02T00:14:39.590Z,0.60
2019-02-02T00:15:40.165Z,0.70
2019-02-02T00:16:39.613Z,0.67
2019-02-02T00:17:39.575Z,0.73
2019-02-02T00:18:39.577Z,0.70
2019-02-02T00:19:39.582Z,0.72
2019-02-02T00:20:39.571Z,0.69
2019-02-02T00:21:39.633Z,0.64
2019-02-02T00:22:39.557Z,0.60
2019-02-02T00:23:39.508Z,0.67
2019-02-02T00:24:39.500Z,0.63
2019-02-02T00:25:39.509Z,0.63
2019-02-02T00:26:39.461Z,0.64
2019-02-02T00:27:41.606Z,0.66
2019-02-02T00:28:39.461Z,0.64
2019-02-02T00:29:39.441Z,0.72
2019-02-02T00:30:39.438Z,0.69
2019-02-02T00:31:39.424Z,0.59
2019-02-02T00:32:39.414Z,0.64
2019-02-02T00:33:39.414Z,0.63
2019-02-02T00:34:39.395Z,0.53
2019-02-02T00:35:39.404Z,0.50
2019-02-02T00:36:39.417Z,0.47
2019-02-02T00:37:39.344Z,0.44
2019-02-02T00:38:39.332Z,0.47
2019-02-02T00:39:39.352Z,0.55
2019-02-02T00:40:39.312Z,0.47
2019-02-02T00:41:39.322Z,0.51
2019-02-02T00:42:39.351Z,0.48
2019-02-02T00:43:39.304Z,0.53
2019-02-02T00:44:39.283Z,0.53
2019-02-02T00:45:39.285Z,0.56
2019-02-02T00:46:39.295Z,0.56
2019-02-02T00:47:39.296Z,0.64
2019-02-02T00:48:39.272Z,0.59
2019-02-02T00:49:39.236Z,0.62
2019-02-02T00:50:39.224Z,0.55
2019-02-02T00:51:39.217Z,0.59
2019-02-02T00:52:39.213Z,0.60
2019-02-02T00:53:39.252Z,0.56
2019-02-02T00:54:39.177Z,0.64
2019-02-02T00:55:39.179Z,0.64
2019-02-02T00:56:39.169Z,0.66
2019-02-02T00:57:39.207Z,0.64
2019-02-02T00:58:39.166Z,0.72
2019-02-02T00:59:39.137Z,0.70
2019-02-02T01:00:39.146Z,0.70
2019-02-02T01:01:39.122Z,0.70
2019-02-02T01:02:39.123Z,0.66
2019-02-02T01:03:39.118Z,0.67
2019-02-02T01:04:39.104Z,0.76
2019-02-02T01:05:39.282Z,0.72
2019-02-02T01:06:39.054Z,0.74
2019-02-02T01:07:39.089Z,0.76
2019-02-02T01:08:39.073Z,0.82
2019-02-02T01:09:39.019Z,0.78
2019-02-02T01:10:39.037Z,0.84
2019-02-02T01:11:39.167Z,0.81
2019-02-02T01:12:38.989Z,0.90
2019-02-02T01:13:39.078Z,0.85
2019-02-02T01:14:39.036Z,0.90
2019-02-02T01:15:39.059Z,0.85
2019-02-02T01:16:39.039Z,0.91
2019-02-02T01:17:38.953Z,0.87
2019-02-02T01:18:38.984Z,0.88
2019-02-02T01:19:38.944Z,0.87
2019-02-02T01:20:38.932Z,0.87
2019-02-02T01:21:38.944Z,0.90
2019-02-02T01:22:38.983Z,0.94
2019-02-02T01:23:38.934Z,0.88
2019-02-02T01:24:38.894Z,0.96
2019-02-02T01:25:38.875Z,0.94
2019-02-02T01:26:38.861Z,0.88
2019-02-02T01:27:38.837Z,0.90
2019-02-02T01:28:38.854Z,0.90
2019-02-02T01:29:38.840Z,0.91
2019-02-02T01:30:38.813Z,0.90
2019-02-02T01:31:38.778Z,0.85
2019-02-02T01:32:38.795Z,0.84
2019-02-02T01:33:38.834Z,0.85
2019-02-02T01:34:38.768Z,0.74
2019-02-02T01:35:38.753Z,0.73
2019-02-02T01:36:38.738Z,0.73
2019-02-02T01:37:38.727Z,0.74
2019-02-02T01:38:38.726Z,0.78
2019-02-02T01:39:38.707Z,0.72
2019-02-02T01:40:38.726Z,0.73
2019-02-02T01:41:38.708Z,0.67
2019-02-02T01:42:38.683Z,0.69
2019-02-02T01:43:38.735Z,0.63
2019-02-02T01:44:38.690Z,0.67
2019-02-02T01:45:38.672Z,0.69
2019-02-02T01:46:38.629Z,0.63
2019-02-02T01:47:38.651Z,0.67
2019-02-02T01:48:38.602Z,0.63
2019-02-02T01:49:38.652Z,0.64
2019-02-02T01:50:38.600Z,0.59
2019-02-02T01:51:38.609Z,0.53
2019-02-02T01:52:38.573Z,0.62
2019-02-02T01:53:38.574Z,0.60
2019-02-02T01:54:38.675Z,0.62
2019-02-02T01:55:38.587Z,0.56
2019-02-02T01:56:38.529Z,0.60
2019-02-02T01:57:38.518Z,0.60
2019-02-02T01:58:38.498Z,0.66
2019-02-02T01:59:38.530Z,0.59
2019-02-02T02:00:38.477Z,0.56
2019-02-02T02:01:41.352Z,0.63
2019-02-02T02:02:38.716Z,0.59
2019-02-02T02:03:38.460Z,0.60
2019-02-02T02:04:38.450Z,0.62
2019-02-02T02:05:38.412Z,0.56
2019-02-02T02:06:38.423Z,0.60
2019-02-02T02:07:38.399Z,0.66
2019-02-02T02:08:38.423Z,0.63
2019-02-02T02:09:38.414Z,0.63
2019-02-02T02:10:38.383Z,0.67
2019-02-02T02:11:38.385Z,0.66
2019-02-02T02:12:38.360Z,0.63
2019-02-02T02:13:38.325Z,0.64
2019-02-02T02:14:38.339Z,0.63
2019-02-02T02:15:38.382Z,0.62
2019-02-02T02:16:38.337Z,0.56
2019-02-02T02:17:38.318Z,0.60
2019-02-02T02:18:38.273Z,0.66
2019-02-02T02:19:38.376Z,0.64
2019-02-02T02:20:38.327Z,0.56
2019-02-02T02:21:38.279Z,0.59
2019-02-02T02:22:41.099Z,0.62
2019-02-02T02:23:38.243Z,0.63
2019-02-02T02:24:38.231Z,0.66
2019-02-02T02:25:38.268Z,0.63
2019-02-02T02:26:38.203Z,0.63
2019-02-02T02:27:38.192Z,0.64
2019-02-02T02:28:38.265Z,0.70
2019-02-02T02:29:38.183Z,0.60
2019-02-02T02:30:38.175Z,0.66
2019-02-02T02:31:38.225Z,0.67
2019-02-02T02:32:38.123Z,0.70
2019-02-02T02:33:38.135Z,0.67
2019-02-02T02:34:38.176Z,0.70
2019-02-02T02:35:38.112Z,0.74
2019-02-02T02:36:38.098Z,0.69
2019-02-02T02:37:38.074Z,0.72
2019-02-02T02:38:38.091Z,0.73
2019-02-02T02:39:38.134Z,0.66
2019-02-02T02:40:38.092Z,0.67
2019-02-02T02:41:38.095Z,0.67
2019-02-02T02:42:38.041Z,0.72
2019-02-02T02:43:38.033Z,0.80
2019-02-02T02:44:38.015Z,0.78
2019-02-02T02:45:38.039Z,0.78
2019-02-02T02:46:37.994Z,0.78
2019-02-02T02:47:38.099Z,0.73
2019-02-02T02:48:37.969Z,0.78
2019-02-02T02:49:37.977Z,0.84
2019-02-02T02:50:37.937Z,0.84
2019-02-02T02:51:37.916Z,0.82
2019-02-02T02:52:37.982Z,0.84
2019-02-02T02:53:37.933Z,0.85
2019-02-02T02:54:37.922Z,0.85
2019-02-02T02:55:37.911Z,0.82
2019-02-02T02:56:37.903Z,0.85
2019-02-02T02:57:37.869Z,0.85
2019-02-02T02:58:41.592Z,0.87
2019-02-02T02:59:37.845Z,0.92
2019-02-02T03:00:37.933Z,0.88
2019-02-02T03:01:37.843Z,0.91
2019-02-02T03:02:37.835Z,0.87
2019-02-02T03:03:37.833Z,0.98
2019-02-02T03:04:37.847Z,0.91
2019-02-02T03:05:37.807Z,0.99
2019-02-02T03:06:37.836Z,0.92
2019-02-02T03:07:37.757Z,0.94
2019-02-02T03:08:37.780Z,0.92
2019-02-02T03:09:37.763Z,0.90
2019-02-02T03:10:37.754Z,0.90
2019-02-02T03:11:37.764Z,0.91
2019-02-02T03:12:37.729Z,0.92
2019-02-02T03:13:37.736Z,0.87
2019-02-02T03:14:37.716Z,0.91
2019-02-02T03:15:37.701Z,0.87
2019-02-02T03:16:37.720Z,0.91
2019-02-02T03:17:37.656Z,0.85
2019-02-02T03:18:37.651Z,0.90
2019-02-02T03:19:37.612Z,0.91
2019-02-02T03:20:37.616Z,0.87
2019-02-02T03:21:37.621Z,0.90
2019-02-02T03:22:37.676Z,0.94
2019-02-02T03:23:37.677Z,0.96
2019-02-02T03:24:37.613Z,0.90
2019-02-02T03:25:37.549Z,0.92
2019-02-02T03:26:37.578Z,0.94
2019-02-02T03:27:37.542Z,0.96
2019-02-02T03:28:37.530Z,0.91
2019-02-02T03:29:37.565Z,0.94
2019-02-02T03:30:37.560Z,0.98
2019-02-02T03:31:37.527Z,0.92
2019-02-02T03:32:37.526Z,0.94
2019-02-02T03:33:37.532Z,0.94
2019-02-02T03:34:37.453Z,0.94
2019-02-02T03:35:37.529Z,0.91
2019-02-02T03:36:37.444Z,0.94
2019-02-02T03:37:37.446Z,0.96
2019-02-02T03:38:37.450Z,0.96
2019-02-02T03:39:37.474Z,0.94
2019-02-02T03:40:37.409Z,1.02
2019-02-02T03:41:37.392Z,1.05
2019-02-02T03:42:37.408Z,1.03
2019-02-02T03:43:37.350Z,1.09
2019-02-02T03:44:37.363Z,1.02
2019-02-02T03:45:40.520Z,1.00
2019-02-02T03:46:37.400Z,1.09
2019-02-02T03:47:37.320Z,1.06
2019-02-02T03:48:37.342Z,1.09
2019-02-02T03:49:37.310Z,0.96
2019-02-02T03:50:37.356Z,1.06
2019-02-02T03:51:37.301Z,1.12
2019-02-02T03:52:37.309Z,1.06
2019-02-02T03:53:37.283Z,1.08
2019-02-02T03:54:37.490Z,1.09
2019-02-02T03:55:37.253Z,1.09
2019-02-02T03:56:37.236Z,1.12
2019-02-02T03:57:37.235Z,1.03
2019-02-02T03:58:37.247Z,1.02
2019-02-02T03:59:37.218Z,1.10
2019-02-02T04:00:37.217Z,1.05
2019-02-02T04:01:37.210Z,1.03
2019-02-02T04:02:37.207Z,1.03
2019-02-02T04:03:37.188Z,1.06
2019-02-02T04:04:37.128Z,1.06
2019-02-02T04:05:37.189Z,1.02
2019-02-02T04:06:37.141Z,1.02
2019-02-02T04:07:37.083Z,1.06
2019-02-02T04:08:37.125Z,1.06
2019-02-02T04:09:37.106Z,0.98
2019-02-02T04:10:37.158Z,0.96
2019-02-02T04:11:37.088Z,0.98
2019-02-02T04:12:37.077Z,0.98
2019-02-02T04:13:37.069Z,0.87
2019-02-02T04:14:37.012Z,0.98
2019-02-02T04:15:37.018Z,0.98
2019-02-02T04:16:37.152Z,1.00
2019-02-02T04:17:36.998Z,0.91
2019-02-02T04:18:37.009Z,0.94
2019-02-02T04:19:36.978Z,0.94
2019-02-02T04:20:37.020Z,0.98
2019-02-02T04:21:37.070Z,0.99
2019-02-02T04:22:36.945Z,0.96
2019-02-02T04:25:09.074Z,0.88
2019-02-02T04:26:08.996Z,0.99
2019-02-02T04:27:09.038Z,0.92
2019-02-02T04:28:08.979Z,0.98
2019-02-02T04:29:17.635Z,0.90
2019-02-02T04:30:09.955Z,0.90
2019-02-02T04:31:08.949Z,0.92
2019-02-02T04:32:08.990Z,0.94
2019-02-02T04:33:08.930Z,0.92
2019-02-02T04:34:08.909Z,0.96
2019-02-02T04:35:08.887Z,0.92
2019-02-02T04:36:08.991Z,1.03
2019-02-02T04:37:08.882Z,0.98
2019-02-02T04:38:08.871Z,1.05
2019-02-02T04:39:08.855Z,0.94
2019-02-02T04:40:08.851Z,0.92
2019-02-02T04:41:08.837Z,0.96
2019-02-02T04:42:08.847Z,1.06
2019-02-02T04:43:08.896Z,1.03
2019-02-02T04:44:08.845Z,1.05
2019-02-02T04:45:08.796Z,1.13
2019-02-02T04:46:08.784Z,1.10
2019-02-02T04:47:08.810Z,1.10
2019-02-02T04:48:08.775Z,1.09
2019-02-02T04:49:08.809Z,1.00
2019-02-02T04:50:08.740Z,1.10
2019-02-02T04:51:08.731Z,1.08
2019-02-02T04:52:08.766Z,1.00
2019-02-02T04:53:08.702Z,1.08
2019-02-02T04:54:08.703Z,1.02
2019-02-02T04:55:08.682Z,1.13
2019-02-02T04:56:08.675Z,1.02
2019-02-02T04:57:08.671Z,1.09
2019-02-02T04:58:08.695Z,1.09
2019-02-02T04:59:08.653Z,1.05
2019-02-02T05:00:08.628Z,1.16
2019-02-02T05:01:08.675Z,1.06
2019-02-02T05:02:08.645Z,1.17
2019-02-02T05:03:08.640Z,1.12
2019-02-02T05:04:08.618Z,1.12
2019-02-02T05:05:08.581Z,1.08
2019-02-02T05:06:08.580Z,1.13
2019-02-02T05:07:08.551Z,1.13
2019-02-02T05:08:08.542Z,1.20
2019-02-02T05:09:08.557Z,1.16
2019-02-02T05:10:08.537Z,1.12
2019-02-02T05:11:08.522Z,1.12
2019-02-02T05:12:08.501Z,1.12
2019-02-02T05:13:08.526Z,1.13
2019-02-02T05:14:08.485Z,1.10
2019-02-02T05:15:08.476Z,1.13
2019-02-02T05:16:08.434Z,1.08
2019-02-02T05:17:08.471Z,1.09
2019-02-02T05:18:08.470Z,1.12
2019-02-02T05:19:08.429Z,1.08
2019-02-02T05:20:08.419Z,1.13
2019-02-02T05:21:08.399Z,1.08
2019-02-02T05:22:08.397Z,1.03
2019-02-02T05:23:08.614Z,1.00
2019-02-02T05:24:08.363Z,1.13
2019-02-02T05:25:08.363Z,1.12
2019-02-02T05:26:08.327Z,1.00
2019-02-02T05:27:08.331Z,0.98
2019-02-02T05:28:08.335Z,1.08
2019-02-02T05:29:08.479Z,1.13
2019-02-02T05:30:08.294Z,1.06
2019-02-02T05:31:08.322Z,1.09
2019-02-02T05:32:08.341Z,1.10
2019-02-02T05:33:08.295Z,1.13
2019-02-02T05:34:08.377Z,1.13
2019-02-02T05:35:08.279Z,1.12
2019-02-02T05:36:08.258Z,1.09
2019-02-02T05:37:08.217Z,1.13
2019-02-02T05:38:08.246Z,1.18
2019-02-02T05:39:08.220Z,1.16
2019-02-02T05:40:08.269Z,1.20
2019-02-02T05:41:08.230Z,1.20
2019-02-02T05:42:08.205Z,1.24
2019-02-02T05:43:08.179Z,1.31
2019-02-02T05:44:08.158Z,1.27
2019-02-02T05:45:08.172Z,1.28
2019-02-02T05:46:08.128Z,1.26
2019-02-02T05:47:08.124Z,1.28
2019-02-02T05:48:08.105Z,1.30
2019-02-02T05:49:08.094Z,1.21
2019-02-02T05:50:08.081Z,1.34
2019-02-02T05:51:08.098Z,1.30
2019-02-02T05:52:08.066Z,1.30
2019-02-02T05:53:08.028Z,1.34
2019-02-02T05:54:08.038Z,1.26
2019-02-02T05:55:08.063Z,1.23
2019-02-02T05:56:07.996Z,1.28
2019-02-02T05:57:07.997Z,1.28
2019-02-02T05:58:07.991Z,1.24
2019-02-02T05:59:07.994Z,1.20
2019-02-02T06:00:07.975Z,1.20
2019-02-02T06:01:07.996Z,1.18
2019-02-02T06:02:07.980Z,1.18
2019-02-02T06:03:07.954Z,1.18
2019-02-02T06:04:07.953Z,1.20
2019-02-02T06:05:07.948Z,1.16
2019-02-02T06:06:07.915Z,1.13
2019-02-02T06:07:07.901Z,1.18
2019-02-02T06:08:07.858Z,1.17
2019-02-02T06:09:07.914Z,1.20
2019-02-02T06:10:07.952Z,1.21
2019-02-02T06:11:07.870Z,1.21
2019-02-02T06:12:07.858Z,1.28
2019-02-02T06:13:07.827Z,1.26
2019-02-02T06:14:07.812Z,1.24
2019-02-02T06:15:07.808Z,1.31
2019-02-02T06:16:07.881Z,1.26
2019-02-02T06:17:07.780Z,1.31
2019-02-02T06:18:07.791Z,1.27
2019-02-02T06:19:07.776Z,1.30
2019-02-02T06:20:07.816Z,1.27
2019-02-02T06:21:07.798Z,1.31
2019-02-02T06:22:07.730Z,1.27
2019-02-02T06:23:07.713Z,1.34
2019-02-02T06:24:07.708Z,1.30
2019-02-02T06:25:07.675Z,1.36
2019-02-02T06:26:07.735Z,1.31
2019-02-02T06:27:07.667Z,1.26
2019-02-02T06:28:07.647Z,1.30
2019-02-02T06:29:07.648Z,1.39
2019-02-02T06:30:07.643Z,1.30
2019-02-02T06:31:07.661Z,1.34
2019-02-02T06:32:11.995Z,1.30
2019-02-02T06:33:07.603Z,1.26
2019-02-02T06:34:07.595Z,1.27
2019-02-02T06:35:07.587Z,1.27
2019-02-02T06:36:07.639Z,1.34
2019-02-02T06:37:07.538Z,1.30
2019-02-02T06:38:07.552Z,1.30
2019-02-02T06:39:07.534Z,1.36
2019-02-02T06:40:07.530Z,1.27
2019-02-02T06:41:07.566Z,1.31
2019-02-02T06:42:07.498Z,1.30
2019-02-02T06:43:07.490Z,1.13
2019-02-02T06:44:07.496Z,1.09
2019-02-02T06:45:07.486Z,1.18
2019-02-02T06:46:07.508Z,1.10
2019-02-02T06:47:07.475Z,1.08
2019-02-02T06:48:07.460Z,1.00
2019-02-02T06:49:07.431Z,1.09
2019-02-02T06:50:07.446Z,1.10
2019-02-02T06:51:07.403Z,1.10
2019-02-02T06:52:07.402Z,0.99
2019-02-02T06:53:07.426Z,0.94
2019-02-02T06:54:07.381Z,0.94
2019-02-02T06:55:07.386Z,0.98
2019-02-02T06:56:07.431Z,0.98
2019-02-02T06:57:07.344Z,0.96
2019-02-02T06:58:07.416Z,0.91
2019-02-02T06:59:07.349Z,0.98
2019-02-02T07:00:15.803Z,0.98
2019-02-02T07:01:08.298Z,0.99
2019-02-02T07:02:07.318Z,0.96
2019-02-02T07:03:07.312Z,0.92
2019-02-02T07:04:07.258Z,0.90
2019-02-02T07:05:07.280Z,0.90
2019-02-02T07:06:07.247Z,0.92
2019-02-02T07:07:07.298Z,0.90
2019-02-02T07:08:07.228Z,0.90
2019-02-02T07:09:07.233Z,0.96
2019-02-02T07:10:07.204Z,0.91
2019-02-02T07:11:07.212Z,0.91
2019-02-02T07:12:07.373Z,0.98
2019-02-02T07:13:07.174Z,0.91
2019-02-02T07:14:07.177Z,0.91
2019-02-02T07:15:07.186Z,0.90
2019-02-02T07:16:07.148Z,0.91
2019-02-02T07:17:07.182Z,0.91
2019-02-02T07:18:07.131Z,0.90
2019-02-02T07:19:07.119Z,0.90
2019-02-02T07:20:07.069Z,0.99
2019-02-02T07:21:07.152Z,0.91
2019-02-02T07:22:07.078Z,0.96
2019-02-02T07:23:07.128Z,0.96
2019-02-02T07:24:07.081Z,0.91
2019-02-02T07:25:07.074Z,1.03
2019-02-02T07:26:07.076Z,0.90
2019-02-02T07:27:07.005Z,1.02
2019-02-02T07:28:07.028Z,0.92
2019-02-02T07:29:06.968Z,0.98
2019-02-02T07:30:06.976Z,0.88
2019-02-02T07:31:06.976Z,0.92
2019-02-02T07:32:06.961Z,0.91
2019-02-02T07:33:06.982Z,0.96
2019-02-02T07:34:06.930Z,0.92
2019-02-02T07:35:06.930Z,0.94
2019-02-02T07:36:06.934Z,0.94
2019-02-02T07:37:06.900Z,1.02
2019-02-02T07:38:06.946Z,0.94
2019-02-02T07:39:06.880Z,0.96
2019-02-02T07:40:06.869Z,0.92
2019-02-02T07:41:06.860Z,0.98
2019-02-02T07:42:06.929Z,0.94
2019-02-02T07:43:06.832Z,0.91
2019-02-02T07:44:06.809Z,0.96
2019-02-02T07:45:06.871Z,0.98
2019-02-02T07:46:14.747Z,0.90
2019-02-02T07:47:09.285Z,0.92
2019-02-02T07:48:06.782Z,0.90
2019-02-02T07:49:06.757Z,0.94
2019-02-02T07:50:06.757Z,1.00
2019-02-02T07:51:06.799Z,0.98
2019-02-02T07:52:06.767Z,1.03
2019-02-02T07:53:06.740Z,1.00
2019-02-02T07:54:06.818Z,0.90
2019-02-02T07:55:06.711Z,0.98
2019-02-02T07:56:06.686Z,0.96
2019-02-02T07:57:06.681Z,0.94
2019-02-02T07:58:06.664Z,0.94
2019-02-02T07:59:07.034Z,0.98
2019-02-02T08:00:06.633Z,0.99
2019-02-02T08:01:06.657Z,1.00
2019-02-02T08:02:06.624Z,1.00
2019-02-02T08:03:06.624Z,1.03
2019-02-02T08:04:06.646Z,1.02
2019-02-02T08:05:06.609Z,1.02
2019-02-02T08:06:06.595Z,1.02
2019-02-02T08:07:06.576Z,1.03
2019-02-02T08:08:06.801Z,1.09
2019-02-02T08:09:06.559Z,1.10
2019-02-02T08:10:06.547Z,0.96
2019-02-02T08:11:06.588Z,0.96
2019-02-02T08:12:06.551Z,0.94
2019-02-02T08:13:06.515Z,0.90
2019-02-02T08:14:06.547Z,0.94
2019-02-02T08:15:06.477Z,0.96
2019-02-02T08:16:06.483Z,1.03
2019-02-02T08:17:06.498Z,0.99
2019-02-02T08:18:06.464Z,1.02
2019-02-02T08:19:06.460Z,1.00
2019-02-02T08:20:06.486Z,0.96
2019-02-02T08:21:06.425Z,1.06
2019-02-02T08:22:06.414Z,1.03
2019-02-02T08:23:06.497Z,1.13
2019-02-02T08:24:06.438Z,1.02
2019-02-02T08:25:06.390Z,1.02
2019-02-02T08:26:06.365Z,1.02
2019-02-02T08:27:06.512Z,1.05
2019-02-02T08:28:06.352Z,1.13
2019-02-02T08:29:06.346Z,1.16
2019-02-02T08:30:06.377Z,1.09
2019-02-02T08:31:06.343Z,1.10
2019-02-02T08:32:06.334Z,1.08
2019-02-02T08:33:06.322Z,1.10
2019-02-02T08:34:06.292Z,1.16
2019-02-02T08:35:06.370Z,1.10
2019-02-02T08:36:06.267Z,1.10
2019-02-02T08:37:06.256Z,1.13
2019-02-02T08:38:06.246Z,1.17
2019-02-02T08:39:06.272Z,1.09
2019-02-02T08:40:06.258Z,1.09
2019-02-02T08:41:06.251Z,1.12
2019-02-02T08:42:06.188Z,1.08
2019-02-02T08:43:06.173Z,1.16
2019-02-02T08:44:06.180Z,1.09
2019-02-02T08:45:06.216Z,1.08
2019-02-02T08:46:06.162Z,1.13
2019-02-02T08:47:06.126Z,1.09
2019-02-02T08:48:06.164Z,1.08
2019-02-02T08:49:06.135Z,1.12
2019-02-02T08:50:06.196Z,1.10
2019-02-02T08:51:06.145Z,1.09
2019-02-02T08:52:06.096Z,1.02
2019-02-02T08:53:06.081Z,1.13
2019-02-02T08:54:06.068Z,1.05
2019-02-02T08:55:06.145Z,0.96
2019-02-02T08:56:06.270Z,1.08
2019-02-02T08:57:06.161Z,1.02
2019-02-02T08:58:06.074Z,1.12
2019-02-02T08:59:06.004Z,1.09
2019-02-02T09:00:06.013Z,1.03
2019-02-02T09:01:06.018Z,1.03
2019-02-02T09:02:05.981Z,1.05
2019-02-02T09:03:06.097Z,1.05
2019-02-02T09:04:06.092Z,1.08
2019-02-02T09:05:05.964Z,1.05
2019-02-02T09:06:06.151Z,1.10
2019-02-02T09:07:05.996Z,1.03
2019-02-02T09:08:05.944Z,1.13
2019-02-02T09:09:05.933Z,1.12
2019-02-02T09:10:05.884Z,1.10
2019-02-02T09:11:05.981Z,1.09
2019-02-02T09:12:05.884Z,1.10
2019-02-02T09:13:05.888Z,1.13
2019-02-02T09:14:05.856Z,1.10
2019-02-02T09:15:05.868Z,0.99
2019-02-02T09:16:05.896Z,1.03
2019-02-02T09:17:05.861Z,0.99
2019-02-02T09:18:05.810Z,0.98
2019-02-02T09:19:05.812Z,1.10
2019-02-02T09:20:05.783Z,1.10
2019-02-02T09:21:05.783Z,1.02
2019-02-02T09:22:05.803Z,1.13
2019-02-02T09:23:06.728Z,1.06
2019-02-02T09:24:05.722Z,1.10
2019-02-02T09:25:05.746Z,1.05
2019-02-02T09:26:05.857Z,1.09
2019-02-02T09:27:05.755Z,1.08
2019-02-02T09:28:05.696Z,1.09
2019-02-02T09:29:05.715Z,1.12
2019-02-02T09:30:05.708Z,1.16
2019-02-02T09:31:15.538Z,1.08
2019-02-02T09:32:06.696Z,1.08
2019-02-02T09:33:05.648Z,1.08
2019-02-02T09:34:05.649Z,1.09
2019-02-02T09:35:05.626Z,1.10
2019-02-02T09:36:05.611Z,1.16
2019-02-02T09:37:05.653Z,1.18
2019-02-02T09:38:05.594Z,1.16
2019-02-02T09:39:05.606Z,1.17
2019-02-02T09:40:05.550Z,1.16
2019-02-02T09:41:05.554Z,1.12
2019-02-02T09:42:05.626Z,1.10
2019-02-02T09:43:05.555Z,1.13
2019-02-02T09:44:05.535Z,1.16
2019-02-02T09:45:05.497Z,1.18
2019-02-02T09:46:05.800Z,1.16
2019-02-02T09:47:05.483Z,1.24
2019-02-02T09:48:05.504Z,1.17
2019-02-02T09:49:05.475Z,1.27
2019-02-02T09:50:05.466Z,1.31
2019-02-02T09:51:05.448Z,1.24
2019-02-02T09:52:05.491Z,1.27
2019-02-02T09:53:05.447Z,1.30
2019-02-02T09:54:05.412Z,1.27
2019-02-02T09:55:05.440Z,1.31
2019-02-02T09:56:05.394Z,1.34
2019-02-02T09:57:05.443Z,1.38
2019-02-02T09:58:08.449Z,1.41
2019-02-02T09:59:05.360Z,1.34
2019-02-02T10:00:05.497Z,1.48
2019-02-02T10:01:05.330Z,1.44
2019-02-02T10:02:05.308Z,1.38
2019-02-02T10:03:05.342Z,1.41
2019-02-02T10:04:05.318Z,1.35
2019-02-02T10:05:05.274Z,1.27
2019-02-02T10:06:05.306Z,1.30
2019-02-02T10:07:05.275Z,1.30
2019-02-02T10:08:05.271Z,1.31
2019-02-02T10:09:05.270Z,1.38
2019-02-02T10:10:05.252Z,1.28
2019-02-02T10:11:05.242Z,1.23
2019-02-02T10:12:05.241Z,1.36
2019-02-02T10:13:05.260Z,1.35
2019-02-02T10:14:05.191Z,1.27
2019-02-02T10:15:05.161Z,1.38
2019-02-02T10:16:05.171Z,1.39
2019-02-02T10:17:05.187Z,1.38
2019-02-02T10:18:05.208Z,1.39
2019-02-02T10:19:05.140Z,1.41
2019-02-02T10:20:05.148Z,1.38
2019-02-02T10:21:05.123Z,1.38
2019-02-02T10:22:05.100Z,1.35
2019-02-02T10:23:05.139Z,1.41
2019-02-02T10:24:05.112Z,1.28
2019-02-02T10:25:05.146Z,1.36
2019-02-02T10:26:05.050Z,1.39
2019-02-02T10:27:05.046Z,1.36
2019-02-02T10:28:05.031Z,1.41
2019-02-02T10:29:05.032Z,1.45
2019-02-02T10:30:05.052Z,1.45
2019-02-02T10:31:05.016Z,1.44
2019-02-02T10:32:05.020Z,1.45
2019-02-02T10:33:04.987Z,1.48
2019-02-02T10:34:04.967Z,1.39
2019-02-02T10:35:04.959Z,1.48
2019-02-02T10:36:04.982Z,1.53
2019-02-02T10:37:04.931Z,1.49
2019-02-02T10:38:04.971Z,1.56
2019-02-02T10:39:04.890Z,1.64
2019-02-02T10:40:05.169Z,1.53
2019-02-02T10:41:04.929Z,1.62
2019-02-02T10:42:04.882Z,1.60
2019-02-02T10:43:04.885Z,1.53
2019-02-02T10:44:04.910Z,1.64
2019-02-02T10:45:04.935Z,1.63
2019-02-02T10:46:04.873Z,1.62
2019-02-02T10:47:04.833Z,1.62
2019-02-02T10:48:04.873Z,1.57
2019-02-02T10:49:04.833Z,1.57
2019-02-02T10:50:04.785Z,1.56
2019-02-02T10:51:04.797Z,1.53
2019-02-02T10:52:04.815Z,1.56
2019-02-02T10:53:04.754Z,1.63
2019-02-02T10:54:05.706Z,1.57
2019-02-02T10:55:04.784Z,1.63
2019-02-02T10:56:04.734Z,1.57
2019-02-02T10:57:04.740Z,1.60
2019-02-02T10:58:04.769Z,1.60
2019-02-02T10:59:04.694Z,1.57
2019-02-02T11:00:04.685Z,1.63
2019-02-02T11:01:04.673Z,1.59
2019-02-02T11:02:04.672Z,1.66
2019-02-02T11:03:04.645Z,1.64
2019-02-02T11:04:04.691Z,1.69
2019-02-02T11:05:04.793Z,1.67
2019-02-02T11:06:04.621Z,1.62
2019-02-02T11:07:04.695Z,1.63
2019-02-02T11:08:04.637Z,1.69
2019-02-02T11:09:04.582Z,1.71
2019-02-02T11:10:05.435Z,1.62
2019-02-02T11:11:04.821Z,1.66
2019-02-02T11:12:04.688Z,1.66
2019-02-02T11:13:04.570Z,1.59
2019-02-02T11:14:04.770Z,1.57
2019-02-02T11:15:04.540Z,1.63
2019-02-02T11:16:04.735Z,1.57
2019-02-02T11:17:04.563Z,1.62
2019-02-02T11:18:04.495Z,1.64
2019-02-02T11:19:04.471Z,1.56
2019-02-02T11:20:04.512Z,1.67
2019-02-02T11:21:04.461Z,1.64
2019-02-02T11:22:04.747Z,1.67
2019-02-02T11:23:04.442Z,1.64
2019-02-02T11:24:04.421Z,1.69
2019-02-02T11:25:04.501Z,1.67
2019-02-02T11:26:04.529Z,1.67
2019-02-02T11:27:04.376Z,1.64
2019-02-02T11:28:04.513Z,1.62
2019-02-02T11:29:04.337Z,1.63
2019-02-02T11:30:04.354Z,1.59
2019-02-02T11:31:04.384Z,1.57
2019-02-02T11:32:04.307Z,1.52
2019-02-02T11:33:04.295Z,1.52
2019-02-02T11:34:04.308Z,1.49
2019-02-02T11:35:04.295Z,1.45
2019-02-02T11:36:04.324Z,1.48
2019-02-02T11:37:04.298Z,1.39
2019-02-02T11:38:04.240Z,1.49
2019-02-02T11:39:04.229Z,1.44
2019-02-02T11:40:04.255Z,1.38
2019-02-02T11:41:04.231Z,1.41
2019-02-02T11:42:04.234Z,1.42
2019-02-02T11:43:04.210Z,1.41
2019-02-02T11:44:04.171Z,1.41
2019-02-02T11:45:04.210Z,1.42
2019-02-02T11:46:04.190Z,1.46
2019-02-02T11:47:04.183Z,1.41
2019-02-02T11:48:04.151Z,1.56
2019-02-02T11:49:04.132Z,1.38
2019-02-02T11:50:04.122Z,1.49
2019-02-02T11:51:04.145Z,1.53
2019-02-02T11:52:04.153Z,1.53
2019-02-02T11:53:04.102Z,1.55
2019-02-02T11:54:04.073Z,1.53
2019-02-02T11:55:04.072Z,1.53
2019-02-02T11:56:04.086Z,1.45
2019-02-02T11:57:04.079Z,1.36
2019-02-02T11:58:04.156Z,1.53
2019-02-02T11:59:04.031Z,1.52
2019-02-02T12:00:04.031Z,1.44
2019-02-02T12:01:04.000Z,1.52
2019-02-02T12:02:14.246Z,1.46
2019-02-02T12:03:05.034Z,1.44
2019-02-02T12:04:03.987Z,1.49
2019-02-02T12:05:03.963Z,1.49
2019-02-02T12:06:03.934Z,1.46
2019-02-02T12:07:03.931Z,1.55
2019-02-02T12:08:03.964Z,1.45
2019-02-02T12:09:03.920Z,1.48
2019-02-02T12:10:03.945Z,1.55
2019-02-02T12:11:03.886Z,1.56
2019-02-02T12:12:03.861Z,1.48
2019-02-02T12:13:03.950Z,1.46
2019-02-02T12:14:03.864Z,1.41
2019-02-02T12:15:03.865Z,1.39
2019-02-02T12:16:03.833Z,1.42
2019-02-02T12:17:03.836Z,1.41
2019-02-02T12:18:03.833Z,1.52
2019-02-02T12:19:03.868Z,1.42
2019-02-02T12:20:03.769Z,1.42
2019-02-02T12:21:03.802Z,1.44
2019-02-02T12:22:03.794Z,1.41
2019-02-02T12:23:03.762Z,1.42
2019-02-02T12:24:13.292Z,1.38
2019-02-02T12:25:04.768Z,1.39
2019-02-02T12:26:03.724Z,1.38
2019-02-02T12:27:03.760Z,1.38
2019-02-02T12:28:03.735Z,1.36
2019-02-02T12:29:03.728Z,1.30
2019-02-02T12:30:03.782Z,1.28
2019-02-02T12:31:03.650Z,1.21
2019-02-02T12:32:03.676Z,1.27
2019-02-02T12:33:03.839Z,1.28
2019-02-02T12:34:03.714Z,1.28
2019-02-02T12:35:04.722Z,1.31
2019-02-02T12:36:03.612Z,1.20
2019-02-02T12:37:03.660Z,1.17
2019-02-02T12:38:03.647Z,1.23
2019-02-02T12:39:03.638Z,1.17
2019-02-02T12:40:03.557Z,1.17
2019-02-02T12:41:03.559Z,1.20
2019-02-02T12:42:03.558Z,1.18
2019-02-02T12:43:03.535Z,1.12
2019-02-02T12:44:03.582Z,1.13
2019-02-02T12:45:03.510Z,1.08
2019-02-02T12:46:03.536Z,1.09
2019-02-02T12:47:03.470Z,1.00
2019-02-02T12:48:03.465Z,0.96
2019-02-02T12:49:03.527Z,1.10
2019-02-02T12:50:03.440Z,1.06
2019-02-02T12:51:03.584Z,1.12
2019-02-02T12:52:03.438Z,1.05
2019-02-02T12:53:03.430Z,1.12
2019-02-02T12:54:03.456Z,1.12
2019-02-02T12:55:03.442Z,1.06
2019-02-02T12:56:03.392Z,1.16
2019-02-02T12:57:03.389Z,1.06
2019-02-02T12:58:03.349Z,0.96
2019-02-02T12:59:03.382Z,1.05
2019-02-02T13:00:03.375Z,1.02
2019-02-02T13:01:03.352Z,1.12
2019-02-02T13:02:03.360Z,1.09
2019-02-02T13:03:03.337Z,1.09
2019-02-02T13:04:05.513Z,1.00
2019-02-02T13:05:03.294Z,1.03
2019-02-02T13:06:03.286Z,1.06
2019-02-02T13:07:03.297Z,1.08
2019-02-02T13:08:05.373Z,1.02
2019-02-02T13:09:03.253Z,1.09
2019-02-02T13:10:03.295Z,1.10
2019-02-02T13:11:03.225Z,1.05
2019-02-02T13:12:03.260Z,1.06
2019-02-02T13:13:03.235Z,1.09
2019-02-02T13:14:03.215Z,1.10
2019-02-02T13:15:03.238Z,1.05
2019-02-02T13:16:03.165Z,1.08
2019-02-02T13:17:03.178Z,1.03
2019-02-02T13:18:03.164Z,1.12
2019-02-02T13:19:03.150Z,1.10
2019-02-02T13:20:03.202Z,1.09